Pagrindinis puslapis
METAR-TAF:

METAR-TAF

Oro uostai :

Irkutskas, Rusija

platuma: 52-16N, ilguma: 104-19E, Aukštis: 513 m

Dabartinis oras

Ataskaita buvo paskelbta 59 minutes, ne 20:00 UTC
Vėjas 2 kt nuo kintamojo kryptimis
Temperatūra -14°C
Drėgmė 78%
Slėgis 1016 hPa
Matomumas 10 km arba daugiau
nėra debesų žemiau 1500 m ir nėra kamuolinių lietaus debesų

METAR: UIII 212000Z VRB01MPS CAVOK M14/M17 Q1016 R30/810555 NOSIG RMK QFE718/0957

Laikas: 04:59 (20:59 UTC)

Prognozė

Ataskaita buvo paskelbta 59 minutes, ne 20:00 UTC
Prognozė galioja nuo 21 metu 21 UTC su 22 metu 21 UTC
Vėjas 6 kt iš Pietų/Pietryčių
Matomumas 10 km arba daugiau
Tapsmas
nuo 22 metu 10 UTC su 22 metu 12 UTC
Vėjas 10 kt iš Šiaurės Vakarų su gūsio iki 19 kt
Su prošvaistėmis ne aukštis 1000 ft, Liūtiniai kamuoliniai debesys.

TAF: UIII 212000Z 2121/2221 16003MPS 9999 NSC BECMG 2210/2212 32005G10MPS BKN010CB

Orai ataskaitas ir orų prognozės (METAR, TAF).

turimą stotys yra geltonos ir raudonos taškus žemėlapyje.

Perkelti pele per norėdami pamatyti stoties vardą.

Tada spustelėkite, norėdami matyti oro stebėjimo ir prognozės.

Norėdami pakeisti žemėlapį: spustelėkite ant žalios mygtukų su juodo kryžiaus žemyn,; žalią mygtuką su brūkšneliu, jei norite nutolinti; arba žalių rodyklių gretimoms žemėlapius.


METAR-TAF: